createdAt,value
2023-01-19T00:00:43.333Z,0.00
2023-01-19T00:01:43.272Z,0.00
2023-01-19T00:02:43.296Z,0.00
2023-01-19T00:03:43.225Z,0.00
2023-01-19T00:04:43.211Z,0.00
2023-01-19T00:05:43.213Z,0.00
2023-01-19T00:06:43.210Z,0.00
2023-01-19T00:07:43.161Z,0.00
2023-01-19T00:08:43.216Z,0.00
2023-01-19T00:09:43.159Z,0.00
2023-01-19T00:10:43.160Z,0.00
2023-01-19T00:11:43.151Z,0.00
2023-01-19T00:12:43.132Z,0.00
2023-01-19T00:13:43.111Z,0.00
2023-01-19T00:14:43.116Z,0.00
2023-01-19T00:15:43.128Z,0.00
2023-01-19T00:16:43.115Z,0.00
2023-01-19T00:17:43.064Z,0.00
2023-01-19T00:18:43.068Z,0.00
2023-01-19T00:19:43.039Z,0.00
2023-01-19T00:20:43.071Z,0.00
2023-01-19T00:21:43.037Z,0.00
2023-01-19T00:22:43.037Z,0.00
2023-01-19T00:23:43.015Z,0.00
2023-01-19T00:24:43.009Z,0.00
2023-01-19T00:25:42.992Z,0.00
2023-01-19T00:26:43.030Z,0.00
2023-01-19T00:27:42.979Z,0.00
2023-01-19T00:28:43.000Z,0.00
2023-01-19T00:29:42.988Z,0.00
2023-01-19T00:30:42.951Z,0.00
2023-01-19T00:31:42.934Z,0.00
2023-01-19T00:32:42.951Z,0.00
2023-01-19T00:33:42.919Z,0.00
2023-01-19T00:34:42.915Z,0.00
2023-01-19T00:35:42.917Z,0.00
2023-01-19T00:36:42.889Z,0.00
2023-01-19T00:37:42.892Z,0.00
2023-01-19T00:38:42.878Z,0.00
2023-01-19T00:39:42.857Z,0.00
2023-01-19T00:40:42.863Z,0.00
2023-01-19T00:41:42.833Z,0.00
2023-01-19T00:42:42.860Z,0.00
2023-01-19T00:43:42.908Z,0.00
2023-01-19T00:44:42.821Z,0.00
2023-01-19T00:45:42.841Z,0.00
2023-01-19T00:46:42.790Z,0.00
2023-01-19T00:47:42.780Z,0.00
2023-01-19T00:48:42.799Z,0.00
2023-01-19T00:49:42.782Z,0.00
2023-01-19T00:50:42.768Z,0.00
2023-01-19T00:51:42.744Z,0.00
2023-01-19T00:52:42.773Z,0.00
2023-01-19T00:53:42.704Z,0.00
2023-01-19T00:54:42.729Z,0.00
2023-01-19T00:55:42.727Z,0.00
2023-01-19T00:56:42.733Z,0.00
2023-01-19T00:57:42.685Z,0.00
2023-01-19T00:58:42.668Z,0.00
2023-01-19T00:59:42.691Z,0.00
2023-01-19T01:00:42.697Z,0.00
2023-01-19T01:01:44.979Z,0.00
2023-01-19T01:02:43.004Z,0.00
2023-01-19T01:03:42.626Z,0.00
2023-01-19T01:04:42.626Z,0.00
2023-01-19T01:05:42.606Z,0.00
2023-01-19T01:06:42.633Z,0.00
2023-01-19T01:07:42.577Z,0.00
2023-01-19T01:08:42.573Z,0.00
2023-01-19T01:09:42.585Z,0.00
2023-01-19T01:10:42.579Z,0.00
2023-01-19T01:11:42.556Z,0.00
2023-01-19T01:12:54.822Z,0.00
2023-01-19T01:13:43.550Z,0.00
2023-01-19T01:14:42.527Z,0.00
2023-01-19T01:15:42.543Z,0.00
2023-01-19T01:16:42.560Z,0.00
2023-01-19T01:17:42.497Z,0.00
2023-01-19T01:18:42.467Z,0.00
2023-01-19T01:19:42.469Z,0.00
2023-01-19T01:20:42.483Z,0.00
2023-01-19T01:21:42.463Z,0.00
2023-01-19T01:22:42.439Z,0.00
2023-01-19T01:23:42.423Z,0.00
2023-01-19T01:24:42.419Z,0.00
2023-01-19T01:25:42.428Z,0.00
2023-01-19T01:26:42.425Z,0.00
2023-01-19T01:27:42.385Z,0.00
2023-01-19T01:28:42.370Z,0.00
2023-01-19T01:29:42.355Z,0.00
2023-01-19T01:30:42.384Z,0.00
2023-01-19T01:31:42.432Z,0.00
2023-01-19T01:32:42.360Z,0.00
2023-01-19T01:33:42.387Z,0.00
2023-01-19T01:34:42.325Z,0.00
2023-01-19T01:35:42.286Z,0.00
2023-01-19T01:36:42.338Z,0.00
2023-01-19T01:37:42.271Z,0.00
2023-01-19T01:38:42.299Z,0.00
2023-01-19T01:39:42.273Z,0.00
2023-01-19T01:40:42.257Z,0.00
2023-01-19T01:41:42.273Z,0.00
2023-01-19T01:42:42.243Z,0.00
2023-01-19T01:43:42.214Z,0.00
2023-01-19T01:44:42.227Z,0.00
2023-01-19T01:45:42.287Z,0.00
2023-01-19T01:46:42.238Z,0.00
2023-01-19T01:47:42.183Z,0.00
2023-01-19T01:48:42.179Z,0.00
2023-01-19T01:49:42.165Z,0.00
2023-01-19T01:50:42.167Z,0.00
2023-01-19T01:51:42.151Z,0.00
2023-01-19T01:52:42.181Z,0.00
2023-01-19T01:53:42.118Z,0.00
2023-01-19T01:54:42.128Z,0.00
2023-01-19T01:55:42.143Z,0.00
2023-01-19T01:56:42.116Z,0.00
2023-01-19T01:57:42.092Z,0.00
2023-01-19T01:58:42.096Z,0.00
2023-01-19T01:59:42.062Z,0.00
2023-01-19T02:00:42.076Z,0.00
2023-01-19T02:01:42.254Z,0.00
2023-01-19T02:02:42.085Z,0.00
2023-01-19T02:03:42.060Z,0.00
2023-01-19T02:04:42.021Z,0.00
2023-01-19T02:05:42.019Z,0.00
2023-01-19T02:06:42.009Z,0.00
2023-01-19T02:07:42.009Z,0.00
2023-01-19T02:08:42.003Z,0.00
2023-01-19T02:09:41.975Z,0.00
2023-01-19T02:10:41.994Z,0.00
2023-01-19T02:11:41.941Z,0.00
2023-01-19T02:12:41.927Z,0.00
2023-01-19T02:13:41.954Z,0.00
2023-01-19T02:14:41.952Z,0.00
2023-01-19T02:15:41.901Z,0.00
2023-01-19T02:16:41.937Z,0.00
2023-01-19T02:17:41.887Z,0.00
2023-01-19T02:18:41.891Z,0.00
2023-01-19T02:19:41.893Z,0.00
2023-01-19T02:20:41.851Z,0.00
2023-01-19T02:21:41.880Z,0.00
2023-01-19T02:22:41.823Z,0.00
2023-01-19T02:23:41.851Z,0.00
2023-01-19T02:24:41.843Z,0.00
2023-01-19T02:25:41.810Z,0.00
2023-01-19T02:26:41.827Z,0.00
2023-01-19T02:27:41.781Z,0.00
2023-01-19T02:28:41.783Z,0.00
2023-01-19T02:29:41.803Z,0.00
2023-01-19T02:30:41.819Z,0.00
2023-01-19T02:31:41.754Z,0.00
2023-01-19T02:32:41.755Z,0.00
2023-01-19T02:33:41.746Z,0.00
2023-01-19T02:34:41.745Z,0.00
2023-01-19T02:35:41.713Z,0.00
2023-01-19T02:36:41.719Z,0.00
2023-01-19T02:37:41.682Z,0.00
2023-01-19T02:38:41.674Z,0.00
2023-01-19T02:39:41.741Z,0.00
2023-01-19T02:40:41.644Z,0.00
2023-01-19T02:41:41.657Z,0.00
2023-01-19T02:42:41.640Z,0.00
2023-01-19T02:43:41.612Z,0.00
2023-01-19T02:44:41.657Z,0.00
2023-01-19T02:45:41.647Z,0.00
2023-01-19T02:46:41.655Z,0.00
2023-01-19T02:47:41.587Z,0.00
2023-01-19T02:48:41.591Z,0.00
2023-01-19T02:49:41.577Z,0.00
2023-01-19T02:50:41.612Z,0.00
2023-01-19T02:51:41.594Z,0.00
2023-01-19T02:52:41.544Z,0.00
2023-01-19T02:53:41.525Z,0.00
2023-01-19T02:54:41.548Z,0.00
2023-01-19T02:55:41.551Z,0.00
2023-01-19T02:56:41.537Z,0.00
2023-01-19T02:57:41.483Z,0.00
2023-01-19T02:58:41.491Z,0.00
2023-01-19T02:59:41.482Z,0.00
2023-01-19T03:00:41.474Z,0.00
2023-01-19T03:01:41.578Z,0.00
2023-01-19T03:02:41.471Z,0.00
2023-01-19T03:03:41.437Z,0.00
2023-01-19T03:04:41.440Z,0.00
2023-01-19T03:05:41.455Z,0.00
2023-01-19T03:06:41.409Z,0.00
2023-01-19T03:07:41.395Z,0.00
2023-01-19T03:08:41.404Z,0.00
2023-01-19T03:09:41.383Z,0.00
2023-01-19T03:10:41.378Z,0.00
2023-01-19T03:11:41.380Z,0.00
2023-01-19T03:12:41.382Z,0.00
2023-01-19T03:13:41.359Z,0.00
2023-01-19T03:14:41.314Z,0.00
2023-01-19T03:15:41.350Z,0.00
2023-01-19T03:16:41.381Z,0.00
2023-01-19T03:17:41.283Z,0.00
2023-01-19T03:18:41.300Z,0.00
2023-01-19T03:19:41.282Z,0.00
2023-01-19T03:20:41.276Z,0.00
2023-01-19T03:21:41.292Z,0.00
2023-01-19T03:22:41.257Z,0.00
2023-01-19T03:23:41.224Z,0.00
2023-01-19T03:24:41.240Z,0.00
2023-01-19T03:25:41.216Z,0.00
2023-01-19T03:26:41.238Z,0.00
2023-01-19T03:27:41.200Z,0.00
2023-01-19T03:28:41.238Z,0.00
2023-01-19T03:29:41.166Z,0.00
2023-01-19T03:30:41.216Z,0.00
2023-01-19T03:31:41.177Z,0.00
2023-01-19T03:32:41.156Z,0.00
2023-01-19T03:33:41.128Z,0.00
2023-01-19T03:34:41.139Z,0.00
2023-01-19T03:35:41.147Z,0.00
2023-01-19T03:36:41.159Z,0.00
2023-01-19T03:37:41.104Z,0.00
2023-01-19T03:38:41.091Z,0.00
2023-01-19T03:39:41.083Z,0.00
2023-01-19T03:40:41.103Z,0.00
2023-01-19T03:41:41.084Z,0.00
2023-01-19T03:42:41.074Z,0.00
2023-01-19T03:43:41.039Z,0.00
2023-01-19T03:44:41.076Z,0.00
2023-01-19T03:45:41.033Z,0.00
2023-01-19T03:46:41.078Z,0.00
2023-01-19T03:47:41.058Z,0.00
2023-01-19T03:48:40.993Z,0.00
2023-01-19T03:49:40.993Z,0.00
2023-01-19T03:50:41.984Z,0.00
2023-01-19T03:51:41.028Z,0.00
2023-01-19T03:52:40.965Z,0.00
2023-01-19T03:53:40.991Z,0.00
2023-01-19T03:54:40.946Z,0.00
2023-01-19T03:55:40.946Z,0.00
2023-01-19T03:56:40.919Z,0.00
2023-01-19T03:57:40.950Z,0.00
2023-01-19T03:58:40.908Z,0.00
2023-01-19T03:59:40.898Z,0.00
2023-01-19T04:00:40.861Z,0.00
2023-01-19T04:01:41.020Z,0.00
2023-01-19T04:02:40.882Z,0.00
2023-01-19T04:03:40.845Z,0.00
2023-01-19T04:04:40.868Z,0.00
2023-01-19T04:05:40.841Z,0.00
2023-01-19T04:06:40.822Z,0.00
2023-01-19T04:07:40.831Z,0.00
2023-01-19T04:08:40.806Z,0.00
2023-01-19T04:09:40.806Z,0.00
2023-01-19T04:10:40.775Z,0.00
2023-01-19T04:11:40.787Z,0.00
2023-01-19T04:12:40.753Z,0.00
2023-01-19T04:13:40.750Z,0.00
2023-01-19T04:14:40.766Z,0.00
2023-01-19T04:15:40.805Z,0.00
2023-01-19T04:16:40.708Z,0.00
2023-01-19T04:17:40.711Z,0.00
2023-01-19T04:18:40.701Z,0.00
2023-01-19T04:19:40.711Z,0.00
2023-01-19T04:20:40.676Z,0.00
2023-01-19T04:21:40.666Z,0.00
2023-01-19T04:22:40.664Z,0.00
2023-01-19T04:23:40.641Z,0.00
2023-01-19T04:24:40.646Z,0.00
2023-01-19T04:25:40.647Z,0.00
2023-01-19T04:26:40.608Z,0.00
2023-01-19T04:27:40.619Z,0.00
2023-01-19T04:28:40.585Z,0.00
2023-01-19T04:29:40.589Z,0.00
2023-01-19T04:30:40.585Z,0.00
2023-01-19T04:31:40.585Z,0.00
2023-01-19T04:32:40.552Z,0.00
2023-01-19T04:33:40.549Z,0.00
2023-01-19T04:34:40.521Z,0.00
2023-01-19T04:35:40.535Z,0.00
2023-01-19T04:36:40.581Z,0.00
2023-01-19T04:37:40.503Z,0.00
2023-01-19T04:38:40.510Z,0.00
2023-01-19T04:39:40.508Z,0.00
2023-01-19T04:40:40.476Z,0.00
2023-01-19T04:41:40.495Z,0.00
2023-01-19T04:42:40.492Z,0.00
2023-01-19T04:43:40.444Z,0.00
2023-01-19T04:44:40.432Z,0.00
2023-01-19T04:45:40.434Z,0.00
2023-01-19T04:46:40.474Z,0.00
2023-01-19T04:47:40.431Z,0.00
2023-01-19T04:48:41.359Z,0.00
2023-01-19T04:49:40.410Z,0.00
2023-01-19T04:50:40.391Z,0.00
2023-01-19T04:51:40.384Z,0.00
2023-01-19T04:52:40.385Z,0.00
2023-01-19T04:53:40.349Z,0.00
2023-01-19T04:54:40.343Z,0.00
2023-01-19T04:55:40.353Z,0.00
2023-01-19T04:56:40.316Z,0.00
2023-01-19T04:57:40.340Z,0.00
2023-01-19T04:58:40.301Z,0.00
2023-01-19T04:59:40.337Z,0.00
2023-01-19T05:00:40.292Z,0.00
2023-01-19T05:01:40.327Z,0.00
2023-01-19T05:02:40.275Z,0.00
2023-01-19T05:03:40.288Z,0.00
2023-01-19T05:04:40.221Z,0.00
2023-01-19T05:05:40.244Z,0.00
2023-01-19T05:06:40.204Z,0.00
2023-01-19T05:07:40.204Z,0.00
2023-01-19T05:08:40.230Z,0.00
2023-01-19T05:09:40.209Z,0.00
2023-01-19T05:10:40.194Z,0.00
2023-01-19T05:11:40.180Z,0.00
2023-01-19T05:12:40.158Z,0.00
2023-01-19T05:13:40.176Z,0.00
2023-01-19T05:14:40.168Z,0.00
2023-01-19T05:15:40.141Z,0.00
2023-01-19T05:16:40.113Z,0.00
2023-01-19T05:17:40.141Z,0.00
2023-01-19T05:18:40.105Z,0.00
2023-01-19T05:19:40.124Z,0.00
2023-01-19T05:20:40.070Z,0.00
2023-01-19T05:21:40.067Z,0.00
2023-01-19T05:22:40.079Z,0.00
2023-01-19T05:23:40.053Z,0.00
2023-01-19T05:24:40.058Z,0.00
2023-01-19T05:25:40.028Z,0.00
2023-01-19T05:26:40.013Z,0.00
2023-01-19T05:27:40.015Z,0.00
2023-01-19T05:28:40.012Z,0.00
2023-01-19T05:29:40.031Z,0.00
2023-01-19T05:30:40.080Z,0.00
2023-01-19T05:31:39.978Z,0.00
2023-01-19T05:32:39.947Z,0.00
2023-01-19T05:33:39.947Z,0.00
2023-01-19T05:34:39.963Z,0.00
2023-01-19T05:35:39.938Z,0.00
2023-01-19T05:36:39.926Z,0.00
2023-01-19T05:37:39.933Z,0.00
2023-01-19T05:38:39.997Z,0.00
2023-01-19T05:39:39.901Z,0.00
2023-01-19T05:40:39.891Z,0.00
2023-01-19T05:41:39.887Z,0.00
2023-01-19T05:42:39.866Z,0.00
2023-01-19T05:43:39.882Z,0.00
2023-01-19T05:44:39.836Z,0.00
2023-01-19T05:45:39.881Z,0.00
2023-01-19T05:46:39.839Z,0.00
2023-01-19T05:47:39.824Z,0.00
2023-01-19T05:48:39.814Z,0.00
2023-01-19T05:49:39.793Z,0.00
2023-01-19T05:50:39.804Z,0.00
2023-01-19T05:51:39.767Z,0.00
2023-01-19T05:52:39.746Z,0.00
2023-01-19T05:53:39.780Z,0.00
2023-01-19T05:54:39.992Z,0.00
2023-01-19T05:55:39.761Z,0.00
2023-01-19T05:56:39.733Z,0.00
2023-01-19T05:57:39.721Z,0.00
2023-01-19T05:58:39.696Z,0.00
2023-01-19T05:59:39.704Z,0.00
2023-01-19T06:00:39.681Z,0.00
2023-01-19T06:01:40.329Z,0.00
2023-01-19T06:02:39.653Z,16.00
2023-01-19T06:03:39.726Z,0.00
2023-01-19T06:04:39.706Z,0.00
2023-01-19T06:05:39.685Z,0.00
2023-01-19T06:06:39.652Z,0.00
2023-01-19T06:07:39.643Z,0.00
2023-01-19T06:08:39.596Z,0.00
2023-01-19T06:09:39.629Z,0.00
2023-01-19T06:10:39.571Z,0.00
2023-01-19T06:11:39.597Z,20.00
2023-01-19T06:12:39.562Z,0.00
2023-01-19T06:13:41.277Z,0.00
2023-01-19T06:14:39.534Z,0.00
2023-01-19T06:15:39.543Z,0.00
2023-01-19T06:16:39.555Z,0.00
2023-01-19T06:17:39.534Z,0.00
2023-01-19T06:18:39.502Z,0.00
2023-01-19T06:19:39.496Z,0.00
2023-01-19T06:20:39.467Z,0.00
2023-01-19T06:21:39.492Z,0.00
2023-01-19T06:22:39.443Z,0.00
2023-01-19T06:23:39.498Z,0.00
2023-01-19T06:24:39.444Z,0.00
2023-01-19T06:25:39.423Z,0.00
2023-01-19T06:26:39.408Z,0.00
2023-01-19T06:27:39.510Z,16.00
2023-01-19T06:28:39.434Z,16.00
2023-01-19T06:29:39.405Z,16.00
2023-01-19T06:30:39.425Z,16.00
2023-01-19T06:31:39.465Z,16.00
2023-01-19T06:32:39.362Z,16.00
2023-01-19T06:33:39.394Z,16.00
2023-01-19T06:34:39.330Z,16.00
2023-01-19T06:35:39.333Z,16.00
2023-01-19T06:36:39.333Z,32.00
2023-01-19T06:37:39.320Z,16.00
2023-01-19T06:38:39.373Z,16.00
2023-01-19T06:39:39.321Z,20.00
2023-01-19T06:40:39.260Z,20.00
2023-01-19T06:41:39.278Z,20.00
2023-01-19T06:42:39.284Z,20.00
2023-01-19T06:43:39.289Z,20.00
2023-01-19T06:44:39.242Z,20.00
2023-01-19T06:45:39.287Z,20.00
2023-01-19T06:46:39.203Z,32.00
2023-01-19T06:47:39.217Z,20.00
2023-01-19T06:48:39.238Z,16.00
2023-01-19T06:49:39.216Z,16.00
2023-01-19T06:50:39.173Z,16.00
2023-01-19T06:51:39.190Z,20.00
2023-01-19T06:52:39.149Z,16.00
2023-01-19T06:53:39.177Z,20.00
2023-01-19T06:54:39.136Z,36.00
2023-01-19T06:55:39.182Z,20.00
2023-01-19T06:56:39.119Z,20.00
2023-01-19T06:57:39.125Z,36.00
2023-01-19T06:58:39.138Z,24.00
2023-01-19T06:59:39.095Z,24.00
2023-01-19T07:00:39.087Z,24.00
2023-01-19T07:01:39.173Z,24.00
2023-01-19T07:02:39.161Z,24.00
2023-01-19T07:03:39.075Z,28.00
2023-01-19T07:04:39.034Z,28.00
2023-01-19T07:05:39.068Z,28.00
2023-01-19T07:06:38.992Z,48.00
2023-01-19T07:07:39.055Z,32.00
2023-01-19T07:08:39.009Z,32.00
2023-01-19T07:09:39.048Z,16.00
2023-01-19T07:11:26.101Z,36.00
2023-01-19T07:11:40.008Z,20.00
2023-01-19T07:12:38.956Z,36.00
2023-01-19T07:13:39.002Z,44.00
2023-01-19T07:14:38.943Z,44.00
2023-01-19T07:15:38.992Z,52.00
2023-01-19T07:16:38.954Z,56.00
2023-01-19T07:17:38.932Z,52.00
2023-01-19T07:18:38.897Z,40.00
2023-01-19T07:19:38.945Z,64.00
2023-01-19T07:20:38.879Z,68.00
2023-01-19T07:21:38.869Z,56.00
2023-01-19T07:22:38.845Z,68.00
2023-01-19T07:23:38.884Z,76.00
2023-01-19T07:24:38.857Z,72.00
2023-01-19T07:25:38.832Z,88.00
2023-01-19T07:26:38.792Z,80.00
2023-01-19T07:27:38.809Z,80.00
2023-01-19T07:28:38.793Z,88.00
2023-01-19T07:29:38.885Z,80.00
2023-01-19T07:30:38.837Z,72.00
2023-01-19T07:31:38.824Z,84.00
2023-01-19T07:32:38.761Z,84.00
2023-01-19T07:33:38.771Z,104.00
2023-01-19T07:34:38.788Z,112.00
2023-01-19T07:35:38.794Z,104.00
2023-01-19T07:36:38.744Z,112.00
2023-01-19T07:37:38.723Z,108.00
2023-01-19T07:38:38.701Z,112.00
2023-01-19T07:39:42.299Z,132.00
2023-01-19T07:40:38.685Z,124.00
2023-01-19T07:41:38.701Z,144.00
2023-01-19T07:42:38.693Z,136.00
2023-01-19T07:43:38.651Z,144.00
2023-01-19T07:44:38.636Z,128.00
2023-01-19T07:45:38.659Z,128.00
2023-01-19T07:46:38.611Z,144.00
2023-01-19T07:47:38.633Z,168.00
2023-01-19T07:48:38.820Z,168.00
2023-01-19T07:49:38.608Z,180.00
2023-01-19T07:50:38.597Z,192.00
2023-01-19T07:51:38.575Z,192.00
2023-01-19T07:52:38.561Z,192.00
2023-01-19T07:53:38.572Z,192.00
2023-01-19T07:54:38.600Z,240.00
2023-01-19T07:55:38.547Z,280.00
2023-01-19T07:56:38.537Z,280.00
2023-01-19T07:57:38.546Z,300.00
2023-01-19T07:58:38.539Z,352.00
2023-01-19T07:59:38.502Z,416.00
2023-01-19T08:00:38.529Z,492.00
2023-01-19T08:01:38.585Z,512.00
2023-01-19T08:02:38.453Z,460.00
2023-01-19T08:03:38.469Z,496.00
2023-01-19T08:04:38.471Z,496.00
2023-01-19T08:05:38.908Z,580.00
2023-01-19T08:06:38.464Z,716.00
2023-01-19T08:07:38.399Z,740.00
2023-01-19T08:08:38.403Z,932.00
2023-01-19T08:09:38.374Z,876.00
2023-01-19T08:10:38.627Z,968.00
2023-01-19T08:11:38.385Z,956.00
2023-01-19T08:12:38.392Z,912.00
2023-01-19T08:13:38.353Z,844.00
2023-01-19T08:14:38.487Z,760.00
2023-01-19T08:15:38.336Z,704.00
2023-01-19T08:16:38.343Z,780.00
2023-01-19T08:17:38.316Z,752.00
2023-01-19T08:18:38.351Z,620.00
2023-01-19T08:19:41.311Z,608.00
2023-01-19T08:20:38.299Z,620.00
2023-01-19T08:21:38.269Z,768.00
2023-01-19T08:22:38.297Z,712.00
2023-01-19T08:23:38.294Z,828.00
2023-01-19T08:24:38.282Z,956.00
2023-01-19T08:25:38.246Z,1048.00
2023-01-19T08:26:38.216Z,944.00
2023-01-19T08:27:38.225Z,1088.00
2023-01-19T08:28:38.209Z,1128.00
2023-01-19T08:29:38.205Z,1056.00
2023-01-19T08:30:38.315Z,1256.00
2023-01-19T08:31:38.196Z,1128.00
2023-01-19T08:32:38.188Z,1140.00
2023-01-19T08:33:38.434Z,1156.00
2023-01-19T08:34:38.161Z,1072.00
2023-01-19T08:35:38.130Z,1300.00
2023-01-19T08:36:38.131Z,1280.00
2023-01-19T08:37:38.347Z,1188.00
2023-01-19T08:38:38.128Z,1312.00
2023-01-19T08:39:38.092Z,1384.00
2023-01-19T08:40:38.094Z,1428.00
2023-01-19T08:41:38.083Z,1404.00
2023-01-19T08:42:38.067Z,1448.00
2023-01-19T08:43:38.059Z,1280.00
2023-01-19T08:44:46.730Z,1568.00
2023-01-19T08:45:39.023Z,1496.00
2023-01-19T08:46:38.073Z,1388.00
2023-01-19T08:47:38.097Z,1232.00
2023-01-19T08:48:39.836Z,1100.00
2023-01-19T08:49:37.985Z,1040.00
2023-01-19T08:50:38.048Z,1044.00
2023-01-19T08:51:38.081Z,1228.00
2023-01-19T08:52:37.960Z,1088.00
2023-01-19T08:53:37.961Z,1088.00
2023-01-19T08:54:37.980Z,1132.00
2023-01-19T08:55:37.961Z,1100.00
2023-01-19T08:56:37.920Z,1116.00
2023-01-19T08:57:37.904Z,1120.00
2023-01-19T08:58:37.917Z,1100.00
2023-01-19T08:59:38.080Z,1132.00
2023-01-19T09:00:37.952Z,1096.00
2023-01-19T09:01:38.004Z,1052.00
2023-01-19T09:02:37.952Z,1044.00
2023-01-19T09:03:37.847Z,1068.00
2023-01-19T09:04:37.841Z,1036.00
2023-01-19T09:05:37.893Z,1064.00
2023-01-19T09:06:37.835Z,1092.00
2023-01-19T09:07:37.797Z,1068.00
2023-01-19T09:08:37.802Z,1076.00
2023-01-19T09:09:37.781Z,1056.00
2023-01-19T09:10:37.835Z,1056.00
2023-01-19T09:11:37.777Z,1056.00
2023-01-19T09:12:37.774Z,1064.00
2023-01-19T09:13:37.736Z,1072.00
2023-01-19T09:14:37.755Z,1060.00
2023-01-19T09:15:37.874Z,1072.00
2023-01-19T09:16:37.729Z,1080.00
2023-01-19T09:17:37.698Z,1084.00
2023-01-19T09:18:37.703Z,1072.00
2023-01-19T09:19:37.681Z,1084.00
2023-01-19T09:20:37.698Z,1084.00
2023-01-19T09:21:37.681Z,1092.00
2023-01-19T09:22:37.692Z,1084.00
2023-01-19T09:23:37.644Z,1088.00
2023-01-19T09:24:37.660Z,1084.00
2023-01-19T09:25:37.632Z,1088.00
2023-01-19T09:26:37.651Z,1112.00
2023-01-19T09:27:37.794Z,1112.00
2023-01-19T09:28:37.614Z,1100.00
2023-01-19T09:29:37.615Z,1108.00
2023-01-19T09:30:37.643Z,1092.00
2023-01-19T09:31:37.593Z,1092.00
2023-01-19T09:32:37.552Z,1100.00
2023-01-19T09:33:37.546Z,1108.00
2023-01-19T09:34:37.563Z,1116.00
2023-01-19T09:35:37.550Z,1132.00
2023-01-19T09:36:37.553Z,1116.00
2023-01-19T09:37:37.476Z,1120.00
2023-01-19T09:38:37.500Z,1112.00
2023-01-19T09:39:37.520Z,1136.00
2023-01-19T09:40:37.493Z,1136.00
2023-01-19T09:41:37.492Z,1152.00
2023-01-19T09:42:37.517Z,1148.00
2023-01-19T09:43:37.490Z,1144.00
2023-01-19T09:44:37.427Z,1156.00
2023-01-19T09:45:37.441Z,1148.00
2023-01-19T09:46:37.469Z,1168.00
2023-01-19T09:47:37.423Z,1140.00
2023-01-19T09:48:37.412Z,1144.00
2023-01-19T09:49:37.587Z,1144.00
2023-01-19T09:50:37.399Z,1168.00
2023-01-19T09:51:37.723Z,1168.00
2023-01-19T09:52:37.353Z,1160.00
2023-01-19T09:53:37.360Z,1196.00
2023-01-19T09:54:37.342Z,1200.00
2023-01-19T09:55:37.348Z,1216.00
2023-01-19T09:56:37.349Z,1244.00
2023-01-19T09:57:37.369Z,1272.00
2023-01-19T09:58:37.293Z,1232.00
2023-01-19T09:59:37.259Z,1248.00
2023-01-19T10:00:37.370Z,1240.00
2023-01-19T10:01:37.416Z,1280.00
2023-01-19T10:02:37.318Z,1236.00
2023-01-19T10:03:37.257Z,1252.00
2023-01-19T10:04:37.264Z,1220.00
2023-01-19T10:05:37.463Z,1244.00
2023-01-19T10:06:37.228Z,1208.00
2023-01-19T10:07:37.237Z,1304.00
2023-01-19T10:08:37.236Z,1284.00
2023-01-19T10:09:37.181Z,1232.00
2023-01-19T10:10:37.193Z,1240.00
2023-01-19T10:11:51.273Z,1288.00
2023-01-19T10:12:38.247Z,1248.00
2023-01-19T10:13:37.136Z,1268.00
2023-01-19T10:14:37.140Z,1296.00
2023-01-19T10:15:37.149Z,2044.00
2023-01-19T10:16:37.163Z,1896.00
2023-01-19T10:17:37.127Z,1312.00
2023-01-19T10:18:37.137Z,1364.00
2023-01-19T10:19:37.094Z,1528.00
2023-01-19T10:20:37.118Z,1804.00
2023-01-19T10:21:37.077Z,2012.00
2023-01-19T10:22:37.080Z,2740.00
2023-01-19T10:23:37.088Z,2180.00
2023-01-19T10:24:37.099Z,2732.00
2023-01-19T10:25:37.063Z,3416.00
2023-01-19T10:26:37.100Z,3252.00
2023-01-19T10:27:37.057Z,2104.00
2023-01-19T10:28:37.037Z,1952.00
2023-01-19T10:29:37.018Z,2464.00
2023-01-19T10:30:37.053Z,2792.00
2023-01-19T10:31:37.018Z,2688.00
2023-01-19T10:32:36.970Z,2636.00
2023-01-19T10:33:36.988Z,1876.00
2023-01-19T10:34:36.968Z,3380.00
2023-01-19T10:35:36.940Z,3196.00
2023-01-19T10:36:36.978Z,3668.00
2023-01-19T10:37:36.901Z,2324.00
2023-01-19T10:38:36.969Z,1828.00
2023-01-19T10:39:38.691Z,2488.00
2023-01-19T10:40:36.921Z,1924.00
2023-01-19T10:41:36.891Z,2552.00
2023-01-19T10:42:36.882Z,2092.00
2023-01-19T10:43:36.836Z,2028.00
2023-01-19T10:44:36.854Z,2292.00
2023-01-19T10:45:37.067Z,2240.00
2023-01-19T10:46:36.867Z,1848.00
2023-01-19T10:47:36.840Z,2700.00
2023-01-19T10:48:36.850Z,3092.00
2023-01-19T10:49:36.806Z,2860.00
2023-01-19T10:50:36.795Z,3764.00
2023-01-19T10:51:36.778Z,2816.00
2023-01-19T10:52:36.773Z,3400.00
2023-01-19T10:53:36.756Z,4140.00
2023-01-19T10:54:36.789Z,3416.00
2023-01-19T10:55:36.761Z,3240.00
2023-01-19T10:56:36.751Z,4076.00
2023-01-19T10:57:36.733Z,4376.00
2023-01-19T10:58:36.720Z,4132.00
2023-01-19T10:59:36.811Z,2992.00
2023-01-19T11:00:36.717Z,2784.00
2023-01-19T11:01:36.878Z,3500.00
2023-01-19T11:02:36.810Z,3384.00
2023-01-19T11:03:36.721Z,3108.00
2023-01-19T11:04:36.664Z,3540.00
2023-01-19T11:05:36.676Z,3364.00
2023-01-19T11:06:36.654Z,2896.00
2023-01-19T11:07:36.576Z,2528.00
2023-01-19T11:08:36.588Z,1944.00
2023-01-19T11:09:36.588Z,2204.00
2023-01-19T11:10:36.645Z,2116.00
2023-01-19T11:11:36.558Z,2072.00
2023-01-19T11:12:36.567Z,2228.00
2023-01-19T11:13:36.526Z,2224.00
2023-01-19T11:14:36.520Z,1936.00
2023-01-19T11:15:36.544Z,1700.00
2023-01-19T11:16:36.592Z,1688.00
2023-01-19T11:17:36.476Z,1720.00
2023-01-19T11:18:36.482Z,1408.00
2023-01-19T11:19:36.458Z,1260.00
2023-01-19T11:20:36.481Z,1640.00
2023-01-19T11:21:36.448Z,2020.00
2023-01-19T11:22:36.501Z,1972.00
2023-01-19T11:23:36.439Z,2244.00
2023-01-19T11:24:36.468Z,2096.00
2023-01-19T11:25:36.397Z,1788.00
2023-01-19T11:26:36.445Z,1600.00
2023-01-19T11:27:36.425Z,1608.00
2023-01-19T11:28:36.404Z,1452.00
2023-01-19T11:29:36.385Z,1536.00
2023-01-19T11:30:36.390Z,1388.00
2023-01-19T11:31:36.448Z,1260.00
2023-01-19T11:32:36.426Z,1228.00
2023-01-19T11:33:36.360Z,1192.00
2023-01-19T11:34:36.338Z,1060.00
2023-01-19T11:35:36.315Z,1028.00
2023-01-19T11:36:36.350Z,1316.00
2023-01-19T11:37:36.292Z,1180.00
2023-01-19T11:38:36.300Z,1000.00
2023-01-19T11:39:36.264Z,1076.00
2023-01-19T11:40:36.279Z,864.00
2023-01-19T11:41:36.281Z,1184.00
2023-01-19T11:42:36.307Z,1124.00
2023-01-19T11:43:48.211Z,872.00
2023-01-19T11:44:37.258Z,928.00
2023-01-19T11:45:36.224Z,920.00
2023-01-19T11:46:36.234Z,976.00
2023-01-19T11:47:36.220Z,1056.00
2023-01-19T11:48:36.178Z,988.00
2023-01-19T11:49:36.171Z,1044.00
2023-01-19T11:50:36.176Z,1076.00
2023-01-19T11:51:36.258Z,984.00
2023-01-19T11:52:36.162Z,980.00
2023-01-19T11:53:36.138Z,1056.00
2023-01-19T11:54:36.158Z,1448.00
2023-01-19T11:55:36.105Z,1460.00
2023-01-19T11:56:36.109Z,1724.00
2023-01-19T11:57:36.116Z,1308.00
2023-01-19T11:58:36.091Z,1260.00
2023-01-19T11:59:36.105Z,1064.00
2023-01-19T12:00:36.129Z,1100.00
2023-01-19T12:01:36.028Z,1192.00
2023-01-19T12:02:36.079Z,1572.00
2023-01-19T12:03:36.102Z,1408.00
2023-01-19T12:04:36.041Z,1432.00
2023-01-19T12:05:35.998Z,1908.00
2023-01-19T12:06:36.021Z,1704.00
2023-01-19T12:07:36.004Z,1372.00
2023-01-19T12:08:35.996Z,1504.00
2023-01-19T12:09:35.987Z,1524.00
2023-01-19T12:10:35.966Z,1636.00
2023-01-19T12:11:35.958Z,1548.00
2023-01-19T12:12:35.996Z,1576.00
2023-01-19T12:13:36.013Z,1732.00
2023-01-19T12:14:35.927Z,1812.00
2023-01-19T12:15:35.886Z,1772.00
2023-01-19T12:16:35.921Z,1696.00
2023-01-19T12:17:35.919Z,1584.00
2023-01-19T12:18:35.890Z,1596.00
2023-01-19T12:19:35.870Z,1500.00
2023-01-19T12:20:35.838Z,1608.00
2023-01-19T12:21:35.870Z,1688.00
2023-01-19T12:22:35.865Z,1796.00
2023-01-19T12:23:35.829Z,1720.00
2023-01-19T12:24:35.832Z,1732.00
2023-01-19T12:25:35.807Z,1540.00
2023-01-19T12:26:35.794Z,1680.00
2023-01-19T12:27:35.809Z,1732.00
2023-01-19T12:28:35.815Z,1724.00
2023-01-19T12:29:35.773Z,1656.00
2023-01-19T12:30:35.827Z,1652.00
2023-01-19T12:31:35.837Z,1572.00
2023-01-19T12:32:35.758Z,1592.00
2023-01-19T12:33:35.760Z,1636.00
2023-01-19T12:34:35.709Z,1656.00
2023-01-19T12:35:35.728Z,1568.00
2023-01-19T12:36:35.690Z,1672.00
2023-01-19T12:37:35.701Z,1560.00
2023-01-19T12:38:35.698Z,1508.00
2023-01-19T12:39:35.685Z,1520.00
2023-01-19T12:40:35.654Z,1548.00
2023-01-19T12:41:35.650Z,1580.00
2023-01-19T12:42:35.621Z,1628.00
2023-01-19T12:43:35.645Z,1744.00
2023-01-19T12:44:35.652Z,1732.00
2023-01-19T12:45:35.611Z,1804.00
2023-01-19T12:46:35.595Z,1812.00